Time;durP1;ratioP1;P1;durP2;ratioP2;P2;SDS_P1;SDS_P2;PMS_P1;PMS_P2;Temp;Humidity;BMP_temperature;BMP_pressure;BME280_temperature;BME280_humidity;BME280_pressure;Samples;Min_cycle;Max_cycle;Signal;HPM_P1;HPM_P2
2021/07/19 00:00:38;;;;;;;17.33;11.68;;;;;;;26.71;100.00;100214.13;5017884;28;20358;-70
2021/07/19 00:03:24;;;;;;;16.10;12.13;;;;;;;26.64;100.00;100208.47;5017815;28;20029;-69
2021/07/19 00:06:09;;;;;;;18.92;12.15;;;;;;;26.96;100.00;100206.34;5001901;28;20092;-70
2021/07/19 00:08:55;;;;;;;17.10;11.93;;;;;;;26.92;100.00;100209.44;5016616;28;20442;-70
2021/07/19 00:11:43;;;;;;;18.13;11.93;;;;;;;26.54;100.00;100201.34;5016969;28;20175;-70
2021/07/19 00:14:30;;;;;;;19.60;11.80;;;;;;;26.51;100.00;100212.38;5017081;28;20044;-70
2021/07/19 00:17:17;;;;;;;16.08;11.25;;;;;;;26.41;100.00;100212.34;5016881;28;20053;-70
2021/07/19 00:20:05;;;;;;;18.30;11.52;;;;;;;26.28;100.00;100211.78;5016724;28;20058;-70
2021/07/19 00:22:52;;;;;;;16.42;11.82;;;;;;;26.57;100.00;100209.13;5016981;28;20113;-70
2021/07/19 00:25:37;;;;;;;14.35;11.85;;;;;;;26.70;100.00;100217.81;5016911;28;20018;-70
2021/07/19 00:28:23;;;;;;;17.80;11.75;;;;;;;26.58;100.00;100226.97;5016406;28;20029;-71
2021/07/19 00:31:09;;;;;;;12.57;11.15;;;;;;;26.57;100.00;100226.09;5016781;28;20034;-70
2021/07/19 00:33:55;;;;;;;18.77;11.52;;;;;;;26.48;100.00;100226.94;5016782;28;20076;-70
2021/07/19 00:36:41;;;;;;;17.23;11.82;;;;;;;26.53;100.00;100226.53;5016138;28;20037;-69
2021/07/19 00:39:27;;;;;;;18.60;12.38;;;;;;;26.61;100.00;100227.53;5017389;28;20030;-70
2021/07/19 00:42:13;;;;;;;19.85;12.52;;;;;;;26.61;100.00;100224.03;5015954;28;20034;-70
2021/07/19 00:44:58;;;;;;;21.63;12.40;;;;;;;26.42;100.00;100224.81;5015974;28;20041;-70
2021/07/19 00:47:47;;;;;;;15.88;12.02;;;;;;;26.42;100.00;100207.84;5016486;28;20343;-69
2021/07/19 00:50:36;;;;;;;19.45;11.70;;;;;;;26.78;100.00;100212.56;5016632;28;20030;-69
2021/07/19 00:53:22;;;;;;;21.63;12.27;;;;;;;26.52;100.00;100222.16;5015661;28;20057;-69
2021/07/19 00:56:10;;;;;;;15.38;11.82;;;;;;;26.83;100.00;100226.44;5015888;28;20088;-69
2021/07/19 00:58:58;;;;;;;15.80;11.50;;;;;;;26.90;100.00;100220.38;5015683;28;20057;-70
2021/07/19 01:01:47;;;;;;;20.52;11.80;;;;;;;26.87;100.00;100219.78;5016460;28;20038;-70
2021/07/19 01:04:34;;;;;;;17.02;11.63;;;;;;;26.74;100.00;100221.91;5015908;28;20435;-69
2021/07/19 01:07:20;;;;;;;15.93;11.48;;;;;;;26.75;100.00;100202.09;5016497;28;20029;-69
2021/07/19 01:10:13;;;;;;;19.42;12.25;;;;;;;26.75;100.00;100207.47;5016257;28;20033;-70
2021/07/19 01:12:59;;;;;;;18.25;11.60;;;;;;;26.67;100.00;100205.50;5015524;28;20048;-70
2021/07/19 01:15:45;;;;;;;14.25;11.63;;;;;;;26.66;100.00;100211.88;5015153;28;20347;-70
2021/07/19 01:18:31;;;;;;;21.48;11.77;;;;;;;27.02;100.00;100213.00;5015662;28;20064;-70
2021/07/19 01:21:48;;;;;;;15.52;11.43;;;;;;;27.02;100.00;100210.28;5016039;28;20022;-70
2021/07/19 01:24:40;;;;;;;17.02;12.30;;;;;;;27.19;100.00;100210.41;5015234;28;20458;-70
2021/07/19 01:28:00;;;;;;;14.40;11.98;;;;;;;26.96;100.00;100218.91;5016255;28;20030;-70
2021/07/19 01:30:47;;;;;;;15.77;11.80;;;;;;;26.88;100.00;100211.56;5015202;28;20181;-70
2021/07/19 01:33:34;;;;;;;15.05;12.25;;;;;;;26.97;100.00;100209.88;5015152;28;20402;-70
2021/07/19 01:36:24;;;;;;;14.48;12.38;;;;;;;26.81;100.00;100212.28;5014922;28;20457;-70
2021/07/19 01:39:11;;;;;;;18.73;12.65;;;;;;;26.83;100.00;100219.22;5015697;28;20037;-70
2021/07/19 01:41:58;;;;;;;15.70;12.35;;;;;;;26.66;100.00;100221.75;5000969;28;20036;-70
2021/07/19 01:44:45;;;;;;;20.98;12.55;;;;;;;27.06;100.00;100214.41;5015668;28;20022;-70
2021/07/19 01:47:32;;;;;;;19.75;13.15;;;;;;;26.70;100.00;100228.56;5015273;28;20060;-70
2021/07/19 01:50:18;;;;;;;15.43;12.10;;;;;;;26.61;100.00;100235.59;5015913;28;20030;-70
2021/07/19 01:53:04;;;;;;;20.15;12.95;;;;;;;26.31;100.00;100234.81;5001494;28;20033;-70
2021/07/19 01:55:51;;;;;;;19.30;13.60;;;;;;;26.24;100.00;100222.94;5015486;28;20331;-70
2021/07/19 01:58:38;;;;;;;18.20;13.27;;;;;;;26.37;100.00;100221.69;5015381;28;20021;-71
2021/07/19 02:01:25;;;;;;;22.98;14.25;;;;;;;26.23;100.00;100227.47;5015466;28;20026;-71
2021/07/19 02:04:11;;;;;;;23.92;13.98;;;;;;;26.07;100.00;100237.00;5001193;28;20029;-70
2021/07/19 02:06:59;;;;;;;25.67;14.35;;;;;;;26.24;100.00;100233.69;5014545;28;20525;-70
2021/07/19 02:09:49;;;;;;;20.27;13.73;;;;;;;26.03;100.00;100235.56;5015397;28;20446;-70
2021/07/19 02:12:37;;;;;;;17.20;14.00;;;;;;;26.04;100.00;100226.56;5000959;28;20022;-70
2021/07/19 02:15:25;;;;;;;20.33;14.30;;;;;;;26.10;100.00;100231.38;5001168;28;20030;-70
2021/07/19 02:18:13;;;;;;;18.85;14.20;;;;;;;26.42;100.00;100240.94;5014750;28;20033;-71
2021/07/19 02:21:04;;;;;;;20.30;13.88;;;;;;;26.18;100.00;100258.41;5015518;28;20422;-71
2021/07/19 02:23:52;;;;;;;20.67;15.05;;;;;;;26.34;100.00;100266.78;5014145;28;20446;-71
2021/07/19 02:26:38;;;;;;;24.27;15.32;;;;;;;25.92;100.00;100259.81;5015010;28;20406;-70
2021/07/19 02:29:25;;;;;;;15.90;14.23;;;;;;;25.95;100.00;100259.56;5013585;28;20030;-71
2021/07/19 02:32:13;;;;;;;21.92;14.95;;;;;;;25.83;100.00;100257.94;5014523;28;20033;-70
2021/07/19 02:34:59;;;;;;;17.85;13.30;;;;;;;25.86;100.00;100260.34;5014811;28;20080;-70
2021/07/19 02:37:49;;;;;;;16.60;14.25;;;;;;;25.96;100.00;100263.97;5015359;28;20034;-70
2021/07/19 02:40:37;;;;;;;19.52;14.32;;;;;;;26.03;100.00;100257.91;5014934;28;20091;-70
2021/07/19 02:43:24;;;;;;;20.95;14.35;;;;;;;25.96;100.00;100261.28;5015014;28;20040;-70
2021/07/19 02:46:11;;;;;;;21.90;15.20;;;;;;;25.76;100.00;100260.31;5014926;28;20123;-70
2021/07/19 02:48:59;;;;;;;16.20;13.73;;;;;;;25.85;100.00;100261.34;5014700;28;20068;-71
2021/07/19 02:51:45;;;;;;;20.17;14.80;;;;;;;26.23;100.00;100272.25;5015178;28;20026;-70
2021/07/19 02:54:33;;;;;;;19.90;13.77;;;;;;;25.86;100.00;100276.47;5014523;28;20036;-70
2021/07/19 02:57:19;;;;;;;20.30;13.70;;;;;;;26.04;100.00;100277.56;5014195;28;20112;-70
2021/07/19 03:00:07;;;;;;;20.73;14.00;;;;;;;25.79;100.00;100281.50;5013690;28;20454;-70
2021/07/19 03:02:57;;;;;;;15.88;14.25;;;;;;;26.21;100.00;100285.00;5015112;28;20121;-70
2021/07/19 03:05:49;;;;;;;18.48;14.10;;;;;;;26.01;100.00;100284.06;5000423;28;20371;-70
2021/07/19 03:08:42;;;;;;;15.77;14.07;;;;;;;26.06;100.00;100281.81;5014750;28;20053;-70
2021/07/19 03:11:45;;;;;;;21.95;14.52;;;;;;;26.05;100.00;100271.22;5014420;28;20022;-71
2021/07/19 03:14:34;;;;;;;16.45;13.02;;;;;;;26.39;100.00;100278.81;5014615;28;20022;-70
2021/07/19 03:17:21;;;;;;;19.02;14.85;;;;;;;25.98;100.00;100280.78;5013719;28;20462;-71
2021/07/19 03:20:09;;;;;;;17.58;14.23;;;;;;;25.99;100.00;100283.34;5014290;28;20073;-70
2021/07/19 03:22:56;;;;;;;20.88;14.55;;;;;;;26.01;100.00;100281.38;5013611;28;20068;-70
2021/07/19 03:25:43;;;;;;;20.23;14.80;;;;;;;26.23;100.00;100278.50;5014435;28;20481;-70
2021/07/19 03:28:30;;;;;;;19.27;15.25;;;;;;;25.34;100.00;100258.66;5013693;28;20040;-70
2021/07/19 03:31:17;;;;;;;19.77;15.88;;;;;;;25.69;100.00;100267.22;5014621;28;20029;-70
2021/07/19 03:34:05;;;;;;;24.25;15.68;;;;;;;25.96;100.00;100263.97;5000651;28;20409;-70
2021/07/19 03:36:53;;;;;;;18.52;15.25;;;;;;;25.65;100.00;100252.34;5013863;28;20049;-70
2021/07/19 03:39:40;;;;;;;24.45;16.83;;;;;;;25.09;100.00;100248.28;5015128;28;20402;-70
2021/07/19 03:42:27;;;;;;;22.00;16.75;;;;;;;24.84;100.00;100245.09;5017627;28;20037;-70
2021/07/19 03:45:13;;;;;;;23.88;16.75;;;;;;;24.69;100.00;100254.41;5017694;28;20025;-70
2021/07/19 03:48:01;;;;;;;25.23;15.93;;;;;;;24.99;100.00;100249.19;5003799;28;20056;-70
2021/07/19 03:50:50;;;;;;;19.75;16.58;;;;;;;24.92;100.00;100264.06;5003430;28;20030;-70
2021/07/19 03:53:37;;;;;;;28.65;17.25;;;;;;;24.95;100.00;100259.31;5017562;28;20026;-70
2021/07/19 03:56:26;;;;;;;21.83;16.70;;;;;;;25.31;100.00;100264.28;5002514;28;20053;-70
2021/07/19 03:59:14;;;;;;;20.60;16.13;;;;;;;25.38;100.00;100269.97;5017698;28;20103;-70
2021/07/19 04:02:09;;;;;;;22.25;16.48;;;;;;;25.30;100.00;100281.34;5017948;28;20025;-70
2021/07/19 04:05:04;;;;;;;24.55;16.98;;;;;;;25.44;100.00;100285.53;5017226;28;20064;-70
2021/07/19 04:07:50;;;;;;;24.35;17.38;;;;;;;25.10;100.00;100297.38;5017032;28;20034;-69
2021/07/19 04:10:38;;;;;;;25.52;17.52;;;;;;;25.21;100.00;100294.66;5017449;28;20040;-70
2021/07/19 04:13:24;;;;;;;23.17;18.40;;;;;;;24.96;100.00;100300.38;5017474;28;20041;-70
2021/07/19 04:16:15;;;;;;;23.73;18.70;;;;;;;24.68;100.00;100300.94;5017237;28;20061;-70
2021/07/19 04:19:00;;;;;;;28.13;18.85;;;;;;;24.94;100.00;100315.72;5017060;28;20052;-70
2021/07/19 04:21:47;;;;;;;22.55;18.83;;;;;;;24.80;100.00;100307.97;5017264;28;20367;-70
2021/07/19 04:24:33;;;;;;;22.08;17.42;;;;;;;25.22;100.00;100312.44;5016962;28;20034;-70
2021/07/19 04:27:19;;;;;;;23.80;18.95;;;;;;;25.41;100.00;100313.50;5017186;28;20103;-69
2021/07/19 04:30:06;;;;;;;31.40;18.92;;;;;;;25.49;100.00;100321.72;5016779;28;20108;-70
2021/07/19 04:32:52;;;;;;;23.63;18.52;;;;;;;25.37;100.00;100328.13;5016926;28;20128;-70
2021/07/19 04:35:41;;;;;;;23.77;18.25;;;;;;;25.80;100.00;100334.19;5016741;28;20466;-70
2021/07/19 04:38:29;;;;;;;28.88;18.05;;;;;;;26.09;100.00;100345.16;5017152;28;20044;-69
2021/07/19 04:41:19;;;;;;;21.55;18.60;;;;;;;25.89;100.00;100343.31;5016830;28;20057;-70
2021/07/19 04:44:05;;;;;;;23.83;18.60;;;;;;;25.70;100.00;100356.59;5016378;28;20100;-70
2021/07/19 04:46:51;;;;;;;20.98;18.65;;;;;;;25.53;100.00;100367.91;5016611;28;20026;-71
2021/07/19 04:49:41;;;;;;;27.23;19.10;;;;;;;25.87;100.00;100359.53;5017097;28;20065;-70
2021/07/19 04:52:26;;;;;;;24.45;19.40;;;;;;;26.08;100.00;100357.72;5016188;28;20450;-70
2021/07/19 04:55:25;;;;;;;28.60;19.38;;;;;;;25.68;100.00;100323.69;5017006;28;20053;-70
2021/07/19 04:58:14;;;;;;;26.50;19.10;;;;;;;25.95;100.00;100324.88;5016480;28;20025;-70
2021/07/19 05:01:07;;;;;;;22.85;18.88;;;;;;;26.11;100.00;100343.16;5016504;28;20033;-70
2021/07/19 05:03:55;;;;;;;27.83;19.85;;;;;;;25.81;100.00;100343.13;5015833;28;20041;-70
2021/07/19 05:06:47;;;;;;;25.58;18.92;;;;;;;26.17;100.00;100340.81;5016371;28;20057;-69
2021/07/19 05:09:35;;;;;;;22.55;18.40;;;;;;;26.60;100.00;100337.91;5016874;28;20044;-69
2021/07/19 05:12:22;;;;;;;26.33;19.65;;;;;;;26.74;100.00;100316.00;5015860;28;20114;-70
2021/07/19 05:15:09;;;;;;;27.65;19.10;;;;;;;26.59;100.00;100328.97;5015502;28;20105;-70
2021/07/19 05:17:56;;;;;;;20.55;17.77;;;;;;;26.91;100.00;100334.13;5001941;28;20037;-70
2021/07/19 05:20:42;;;;;;;26.50;19.42;;;;;;;27.32;100.00;100336.59;5015830;28;20121;-69
2021/07/19 05:23:28;;;;;;;20.83;17.45;;;;;;;27.72;100.00;100334.56;5015872;28;20434;-70
2021/07/19 05:26:14;;;;;;;20.60;17.38;;;;;;;27.34;100.00;100337.31;5015821;28;20029;-70
2021/07/19 05:29:00;;;;;;;22.80;17.67;;;;;;;27.63;100.00;100348.03;5015326;28;20397;-71
2021/07/19 05:31:46;;;;;;;22.48;16.98;;;;;;;28.00;100.00;100349.84;5016355;28;20096;-71
2021/07/19 05:34:32;;;;;;;27.30;18.13;;;;;;;27.41;100.00;100343.84;5016044;28;20018;-71
2021/07/19 05:37:20;;;;;;;26.45;19.55;;;;;;;27.29;100.00;100344.97;5001249;28;20025;-69
2021/07/19 05:40:07;;;;;;;24.58;20.08;;;;;;;27.37;100.00;100348.63;5014979;28;20113;-70
2021/07/19 05:42:53;;;;;;;29.77;19.00;;;;;;;27.64;100.00;100347.06;5015267;28;20128;-70
2021/07/19 05:45:38;;;;;;;28.27;20.05;;;;;;;27.58;100.00;100353.88;5015985;28;20363;-71
2021/07/19 05:48:24;;;;;;;23.45;18.80;;;;;;;27.58;100.00;100343.94;5014810;28;20030;-71
2021/07/19 05:51:10;;;;;;;27.50;19.10;;;;;;;27.76;100.00;100359.38;5015608;28;20049;-71
2021/07/19 05:53:56;;;;;;;29.00;21.50;;;;;;;26.78;100.00;100341.59;5015233;28;20030;-70
2021/07/19 05:56:42;;;;;;;31.33;20.27;;;;;;;26.71;100.00;100343.13;5015427;28;20033;-70
2021/07/19 05:59:27;;;;;;;27.83;20.52;;;;;;;26.96;100.00;100345.31;5015174;28;20108;-71
2021/07/19 06:02:17;;;;;;;25.20;19.85;;;;;;;27.68;100.00;100346.63;5015263;28;20113;-70
2021/07/19 06:05:04;;;;;;;27.38;20.40;;;;;;;27.57;100.00;100345.94;5014529;28;20069;-72
2021/07/19 06:07:50;;;;;;;24.42;19.10;;;;;;;27.97;100.00;100349.28;5015506;28;20087;-71
2021/07/19 06:10:35;;;;;;;32.40;20.10;;;;;;;27.82;100.00;100350.75;5015681;28;20485;-70
2021/07/19 06:13:21;;;;;;;28.30;19.77;;;;;;;28.43;100.00;100342.06;5015595;28;20030;-70
2021/07/19 06:16:08;;;;;;;27.10;19.10;;;;;;;28.50;100.00;100353.94;5001355;28;20030;-70
2021/07/19 06:18:54;;;;;;;23.25;20.75;;;;;;;28.78;100.00;100358.34;5015211;28;20076;-71
2021/07/19 06:21:40;;;;;;;29.13;19.95;;;;;;;28.77;100.00;100369.28;5014393;28;20107;-70
2021/07/19 06:24:26;;;;;;;27.48;20.75;;;;;;;29.12;100.00;100378.31;5000421;28;20424;-71
2021/07/19 06:27:11;;;;;;;25.90;19.15;;;;;;;28.79;100.00;100376.22;5014616;28;20040;-70
2021/07/19 06:29:57;;;;;;;26.45;19.65;;;;;;;28.91;100.00;100384.94;5000048;28;20033;-71
2021/07/19 06:32:43;;;;;;;23.95;19.60;;;;;;;28.41;100.00;100379.06;5014574;28;20045;-70
2021/07/19 06:35:29;;;;;;;23.73;19.17;;;;;;;28.77;100.00;100374.66;5014567;28;20358;-71
2021/07/19 06:38:15;;;;;;;27.10;20.40;;;;;;;28.78;100.00;100379.91;5000829;28;20122;-70
2021/07/19 06:41:01;;;;;;;25.63;18.95;;;;;;;29.14;100.00;100379.00;5014681;28;20107;-71
2021/07/19 06:43:47;;;;;;;27.63;20.70;;;;;;;29.19;100.00;100373.13;5014766;28;20037;-71
2021/07/19 06:46:33;;;;;;;24.38;19.15;;;;;;;29.76;100.00;100368.13;5014437;28;20040;-71
2021/07/19 06:49:18;;;;;;;28.00;19.95;;;;;;;29.33;100.00;100373.44;5014573;28;20431;-70
2021/07/19 06:52:05;;;;;;;22.83;18.67;;;;;;;29.76;100.00;100368.13;5014213;28;20032;-70
2021/07/19 06:54:51;;;;;;;26.15;19.20;;;;;;;29.48;100.00;100369.22;5014871;28;20045;-71
2021/07/19 06:57:37;;;;;;;23.20;20.13;;;;;;;29.56;100.00;100361.19;5014734;28;20389;-71
2021/07/19 07:00:23;;;;;;;32.90;20.70;;;;;;;29.62;100.00;100360.56;5013910;28;20032;-71
2021/07/19 07:03:08;;;;;;;25.17;20.05;;;;;;;29.87;100.00;100354.38;5014241;28;20046;-70
2021/07/19 07:05:54;;;;;;;25.25;20.08;;;;;;;29.12;100.00;100362.09;5014433;28;20100;-71
2021/07/19 07:08:40;;;;;;;23.88;20.33;;;;;;;29.43;100.00;100355.34;5014282;28;20064;-71
2021/07/19 07:11:29;;;;;;;25.00;19.70;;;;;;;29.84;100.00;100360.09;5014279;28;20029;-71
2021/07/19 07:14:15;;;;;;;26.48;19.92;;;;;;;29.74;100.00;100353.91;5015332;28;20085;-71
2021/07/19 07:17:01;;;;;;;29.08;20.80;;;;;;;30.02;100.00;100358.16;5017908;28;20048;-71
2021/07/19 07:19:47;;;;;;;26.23;21.40;;;;;;;30.33;100.00;100356.72;5017599;28;20054;-71
2021/07/19 07:22:33;;;;;;;28.30;21.13;;;;;;;30.17;100.00;100347.66;5017761;28;20045;-71
2021/07/19 07:25:18;;;;;;;28.08;21.60;;;;;;;30.38;100.00;100348.13;5018587;28;20022;-71
2021/07/19 07:28:04;;;;;;;33.45;22.35;;;;;;;30.53;100.00;100355.44;5018166;28;20462;-71
2021/07/19 07:30:50;;;;;;;29.38;21.98;;;;;;;30.58;100.00;100344.97;5017772;28;20034;-71
2021/07/19 07:33:37;;;;;;;22.98;20.58;;;;;;;31.08;100.00;100353.13;5017517;28;20014;-70
2021/07/19 07:36:24;;;;;;;25.88;20.75;;;;;;;31.00;100.00;100345.84;5017996;28;20038;-71
2021/07/19 07:39:10;;;;;;;27.85;20.35;;;;;;;31.02;100.00;100348.38;5018578;28;20378;-71
2021/07/19 07:41:56;;;;;;;22.52;18.20;;;;;;;31.95;100.00;100340.69;5017933;28;20443;-71
2021/07/19 07:44:41;;;;;;;26.15;18.30;;;;;;;32.19;100.00;100347.91;5003857;28;20339;-70
2021/07/19 07:47:27;;;;;;;23.95;17.67;;;;;;;32.48;100.00;100351.75;5017755;28;20021;-71
2021/07/19 07:50:16;;;;;;;19.58;16.20;;;;;;;33.21;100.00;100354.94;5018253;28;20030;-72
2021/07/19 07:53:02;;;;;;;21.48;17.15;;;;;;;32.82;100.00;100343.31;5017611;28;20033;-71
2021/07/19 07:55:48;;;;;;;20.73;17.38;;;;;;;31.70;100.00;100333.53;5017778;28;20116;-71
2021/07/19 07:58:34;;;;;;;25.55;17.13;;;;;;;32.21;100.00;100338.56;5017163;28;20472;-70
2021/07/19 08:01:20;;;;;;;26.90;17.38;;;;;;;33.06;100.00;100345.91;5017117;28;20061;-70
2021/07/19 08:04:06;;;;;;;18.08;16.17;;;;;;;33.05;100.00;100338.75;5017329;28;20034;-70
2021/07/19 08:06:52;;;;;;;18.38;15.27;;;;;;;32.82;100.00;100344.16;5017746;28;20112;-71
2021/07/19 08:09:37;;;;;;;18.02;15.50;;;;;;;32.88;100.00;100338.03;5017106;28;20458;-71
2021/07/19 08:12:26;;;;;;;23.05;16.02;;;;;;;33.24;100.00;100341.88;5017121;28;20048;-72
2021/07/19 08:15:14;;;;;;;19.48;15.32;;;;;;;33.17;100.00;100340.03;5002689;28;20021;-70
2021/07/19 08:18:00;;;;;;;17.48;14.93;;;;;;;33.02;100.00;100339.13;5017453;28;20034;-71
2021/07/19 08:20:46;;;;;;;20.27;15.10;;;;;;;33.67;100.00;100330.31;5017017;28;20022;-71
2021/07/19 08:23:32;;;;;;;18.75;14.70;;;;;;;33.62;100.00;100332.75;5002386;28;20032;-71
2021/07/19 08:26:17;;;;;;;17.90;14.05;;;;;;;33.44;100.00;100331.38;5015977;28;20480;-70
2021/07/19 08:29:04;;;;;;;17.92;14.82;;;;;;;33.56;100.00;100319.06;5002568;28;20595;-71
2021/07/19 08:31:50;;;;;;;17.23;14.63;;;;;;;33.36;100.00;100320.56;5017095;28;20029;-71
2021/07/19 08:34:36;;;;;;;20.38;15.15;;;;;;;32.72;100.00;100329.94;5016873;28;20377;-70
2021/07/19 08:37:22;;;;;;;18.75;15.20;;;;;;;32.62;100.00;100331.19;5018009;28;20030;-70
2021/07/19 08:40:09;;;;;;;19.00;16.27;;;;;;;32.38;100.00;100328.56;5016439;28;20494;-70
2021/07/19 08:42:55;;;;;;;19.48;15.23;;;;;;;33.13;100.00;100325.13;5016410;28;20030;-71
2021/07/19 08:45:41;;;;;;;17.95;15.32;;;;;;;32.78;100.00;100320.25;5016122;28;20038;-71
2021/07/19 08:48:27;;;;;;;17.23;15.43;;;;;;;33.18;100.00;100320.03;5016448;28;20037;-71
2021/07/19 08:51:13;;;;;;;15.75;13.93;;;;;;;33.56;100.00;100311.75;5016200;28;20053;-71
2021/07/19 08:54:00;;;;;;;17.65;14.25;;;;;;;33.88;100.00;100307.91;5016293;28;20082;-71
2021/07/19 08:56:46;;;;;;;19.08;15.57;;;;;;;33.92;100.00;100314.66;5016032;28;20034;-71
2021/07/19 08:59:33;;;;;;;20.40;14.85;;;;;;;33.65;100.00;100313.38;5016340;28;20040;-71
2021/07/19 09:02:18;;;;;;;24.83;15.25;;;;;;;34.35;100.00;100317.41;5016568;28;20112;-71
2021/07/19 09:05:05;;;;;;;17.23;13.98;;;;;;;33.83;100.00;100319.31;5016072;28;20439;-71
2021/07/19 09:07:52;;;;;;;17.70;15.20;;;;;;;33.81;100.00;100315.94;5016314;28;20350;-71
2021/07/19 09:10:38;;;;;;;18.00;14.43;;;;;;;34.69;100.00;100305.94;5016055;28;20065;-70
2021/07/19 09:13:24;;;;;;;17.00;14.95;;;;;;;34.60;100.00;100307.91;5016275;28;20025;-71
2021/07/19 09:16:10;;;;;;;21.15;15.93;;;;;;;34.39;100.00;100315.19;5015945;28;20085;-71
2021/07/19 09:19:11;;;;;;;18.48;14.00;;;;;;;34.63;100.00;100312.97;5001720;28;20469;-70
2021/07/19 09:21:59;;;;;;;19.65;15.60;;;;;;;33.92;100.00;100315.50;5015831;28;20025;-70
2021/07/19 09:24:45;;;;;;;20.70;14.32;;;;;;;34.10;100.00;100304.25;5016064;28;20030;-70
2021/07/19 09:27:31;;;;;;;19.38;16.42;;;;;;;33.97;100.00;100313.06;5016309;28;20538;-70
2021/07/19 09:30:18;;;;;;;15.55;14.05;;;;;;;34.31;100.00;100309.84;5017235;28;20041;-71
2021/07/19 09:33:11;;;;;;;15.45;13.95;;;;;;;34.53;100.00;100306.13;5001378;28;20458;-71
2021/07/19 09:36:00;;;;;;;16.15;13.63;;;;;;;34.69;100.00;100305.94;5015273;28;20370;-71
2021/07/19 09:38:46;;;;;;;18.13;13.63;;;;;;;35.29;100.00;100309.16;5015455;28;20029;-71
2021/07/19 09:41:32;;;;;;;17.08;13.05;;;;;;;36.20;100.00;100309.88;5015535;28;20114;-71
2021/07/19 09:44:23;;;;;;;15.65;13.77;;;;;;;36.03;100.00;100318.63;5015857;28;20036;-71
2021/07/19 09:47:13;;;;;;;16.35;13.90;;;;;;;35.76;98.98;100312.13;5001017;28;20176;-71
2021/07/19 09:50:10;;;;;;;19.40;13.63;;;;;;;35.35;100.00;100313.81;5015447;28;20113;-71
2021/07/19 09:52:58;;;;;;;17.70;13.55;;;;;;;34.92;100.00;100312.91;5001365;28;20026;-70
2021/07/19 09:55:44;;;;;;;15.00;12.52;;;;;;;35.01;100.00;100313.66;5014697;28;20073;-70
2021/07/19 09:58:29;;;;;;;20.35;13.48;;;;;;;34.93;100.00;100317.34;5014633;28;20144;-70
2021/07/19 10:01:29;;;;;;;15.75;13.25;;;;;;;35.01;100.00;100311.78;5014848;28;20034;-71
2021/07/19 10:04:23;;;;;;;18.30;13.73;;;;;;;34.88;100.00;100311.63;5001327;28;20021;-71
2021/07/19 10:07:09;;;;;;;18.88;14.02;;;;;;;34.94;100.00;100313.59;5015652;28;20107;-71
2021/07/19 10:09:56;;;;;;;17.88;12.32;;;;;;;35.08;100.00;100309.13;5015689;28;20096;-71
2021/07/19 10:12:42;;;;;;;18.30;12.73;;;;;;;34.78;100.00;100310.22;5014569;28;20030;-71
2021/07/19 10:15:30;;;;;;;16.30;13.27;;;;;;;34.66;100.00;100304.44;5015603;28;20018;-71
2021/07/19 10:18:17;;;;;;;17.08;12.70;;;;;;;34.87;100.00;100306.38;5015156;28;20056;-70
2021/07/19 10:21:05;;;;;;;18.38;12.82;;;;;;;35.50;98.75;100311.00;5014731;28;20040;-71
2021/07/19 10:23:51;;;;;;;15.85;12.88;;;;;;;35.03;99.11;100303.41;5014250;28;20108;-70
2021/07/19 10:26:37;;;;;;;14.65;12.63;;;;;;;34.86;100.00;100305.53;5014840;28;20030;-71
2021/07/19 10:29:23;;;;;;;17.48;12.63;;;;;;;34.74;100.00;100300.75;5015568;28;20034;-71
2021/07/19 10:32:09;;;;;;;17.98;12.93;;;;;;;34.46;100.00;100294.31;5015451;28;20021;-71
2021/07/19 10:34:55;;;;;;;20.35;13.40;;;;;;;35.01;100.00;100291.88;5014530;28;20514;-71
2021/07/19 10:37:54;;;;;;;15.30;12.73;;;;;;;34.82;100.00;100292.50;5015245;28;20025;-71
2021/07/19 10:40:40;;;;;;;22.70;12.38;;;;;;;35.31;98.93;100296.16;5014642;28;20111;-71
2021/07/19 10:43:29;;;;;;;17.58;12.65;;;;;;;35.51;96.66;100288.19;5000909;28;20021;-71
2021/07/19 10:46:15;;;;;;;18.27;11.63;;;;;;;34.41;99.50;100285.88;5014604;28;20038;-71
2021/07/19 10:49:13;;;;;;;14.55;13.05;;;;;;;34.81;99.31;100285.38;5000973;28;20029;-71
2021/07/19 10:52:09;;;;;;;14.13;12.48;;;;;;;34.59;99.19;100286.34;5018977;28;20041;-71
2021/07/19 10:54:55;;;;;;;14.57;13.00;;;;;;;34.34;100.00;100283.09;5018750;28;20022;-71
2021/07/19 10:57:44;;;;;;;16.90;12.77;;;;;;;33.82;100.00;100278.72;5020484;28;20029;-71
2021/07/19 11:00:37;;;;;;;16.45;12.52;;;;;;;34.30;100.00;100278.16;5017610;28;20030;-71
2021/07/19 11:03:23;;;;;;;15.05;13.00;;;;;;;34.46;100.00;100270.69;5018284;28;20333;-71
2021/07/19 11:06:10;;;;;;;18.13;12.82;;;;;;;35.42;100.00;100270.28;5018044;28;20109;-71
2021/07/19 11:08:55;;;;;;;14.73;13.07;;;;;;;35.59;98.73;100277.16;5018255;28;20057;-71
2021/07/19 11:11:43;;;;;;;17.75;13.25;;;;;;;35.20;99.16;100273.00;5018101;28;20450;-71
2021/07/19 11:14:29;;;;;;;23.40;13.68;;;;;;;35.09;99.31;100276.25;5018709;28;20030;-72
2021/07/19 11:17:20;;;;;;;15.88;12.93;;;;;;;34.99;100.00;100273.00;5017457;28;20108;-71
2021/07/19 11:20:15;;;;;;;15.27;13.52;;;;;;;35.27;99.97;100270.31;5017658;28;20054;-71
2021/07/19 11:23:01;;;;;;;14.93;12.70;;;;;;;35.31;99.57;100274.38;5017322;28;20033;-71
2021/07/19 11:25:47;;;;;;;14.57;13.07;;;;;;;35.32;100.00;100270.63;5018055;28;20037;-71
2021/07/19 11:28:42;;;;;;;20.20;13.45;;;;;;;35.70;100.00;100274.72;5017747;28;20029;-71
2021/07/19 11:31:29;;;;;;;15.70;13.93;;;;;;;35.23;100.00;100272.59;5018321;28;20347;-72
2021/07/19 11:34:23;;;;;;;21.38;14.15;;;;;;;34.82;100.00;100276.16;5017971;28;20026;-71
2021/07/19 11:37:09;;;;;;;16.52;13.45;;;;;;;34.39;100.00;100271.66;5017989;28;20030;-72
2021/07/19 11:39:55;;;;;;;18.67;14.02;;;;;;;34.56;100.00;100263.03;5017885;28;20473;-71
2021/07/19 11:42:43;;;;;;;15.25;13.65;;;;;;;34.89;100.00;100260.75;5017244;28;20092;-71
2021/07/19 11:45:41;;;;;;;17.13;13.65;;;;;;;35.43;99.18;100259.19;5017789;28;20045;-71
2021/07/19 11:48:27;;;;;;;17.83;14.23;;;;;;;35.55;99.54;100254.06;5017613;28;20048;-70
2021/07/19 11:51:14;;;;;;;15.35;13.68;;;;;;;35.67;99.32;100256.00;5017926;28;20037;-70
2021/07/19 11:54:00;;;;;;;19.10;14.52;;;;;;;35.71;97.91;100260.03;5017915;28;20018;-71
2021/07/19 11:56:53;;;;;;;16.30;13.68;;;;;;;35.82;97.30;100255.94;5018433;28;20040;-71
2021/07/19 11:59:41;;;;;;;15.55;12.90;;;;;;;35.28;96.99;100241.22;5004197;28;20116;-69
2021/07/19 12:02:27;;;;;;;16.23;13.73;;;;;;;35.18;98.13;100244.25;5018472;28;20462;-70
2021/07/19 12:05:14;;;;;;;19.13;13.02;;;;;;;35.40;97.68;100243.25;5017430;28;20072;-71
2021/07/19 12:08:03;;;;;;;17.88;14.10;;;;;;;34.83;98.93;100247.88;5017645;28;20109;-71
2021/07/19 12:10:52;;;;;;;15.50;13.95;;;;;;;35.63;96.35;100243.81;5017269;28;20030;-70
2021/07/19 12:13:42;;;;;;;16.02;13.50;;;;;;;35.75;96.15;100250.44;5017972;28;20357;-70
2021/07/19 12:16:33;;;;;;;14.40;12.30;;;;;;;35.54;97.87;100242.28;5002767;28;20045;-71
2021/07/19 12:19:20;;;;;;;20.50;13.05;;;;;;;35.29;98.84;100237.47;5017572;28;20483;-70
2021/07/19 12:22:06;;;;;;;14.75;12.35;;;;;;;35.28;100.00;100233.03;5003776;28;20033;-71
2021/07/19 12:24:55;;;;;;;13.82;12.43;;;;;;;35.41;97.67;100231.28;5018964;28;20044;-72
2021/07/19 12:27:41;;;;;;;14.90;13.30;;;;;;;35.33;100.00;100228.72;5017694;28;20030;-71
2021/07/19 12:30:28;;;;;;;16.05;12.45;;;;;;;35.22;100.00;100230.06;5017585;28;20049;-72
2021/07/19 12:33:22;;;;;;;17.55;13.68;;;;;;;35.17;100.00;100231.69;5018709;28;20115;-70